Echo, Utah
Current Conditions -  °F | °C
As of 12:58 PM on Sunday 25 Jan 2015 (Local Time) from KHIF Reporting Station
Clear Clear  
Wind Chill: 45°   Ceiling: Unl
Heat Index: 45°   Visibility: 10mi
Dew Point: 22°   Wind: 3mph
Humidity: 40%   Direction: 240°WSW
Pressure: 30.44"   Gusts: NA
Location:  40.98°N, 111.45°W
Report Text: KHIF 251958Z AUTO 24003KT 10SM CLR 07/M06 A3044 RMK AO2 SLP306 T00721056
Loading
Personal Weather Stations






























Interactive Weather Map New forecast layout! Learn more

10-Day Weather Forecast

Advertisements
Track Severe Weather on mobile